MET5368 - Boston to Charlottesville

Embraer ERJ-170LR
955AG
0 hrs 45 mins
425 nm
Scheduled - Daily

Bid/PiRep Status

Bid was submitted on January 6th, 2017 10:26 UTC.
PiRep # 74630: Approved by Sean Doyle on January 7th, 2017 23:41 UTC

Departure

Departing from
Boston (BOS)
Departure gate
Scheduled Departure
GMT 1700
Local 1300
METAR KBOS 201810Z 02021G28KT 4SM -RA BR OVC008 19/19 A2986 RMK AO2 PK WND 02028/1801 P0000 T01940189
TAF KBOS 201727Z 2018/2124 02018G30KT 3SM -SHRA BR OVC006 FM202300 02013G31KT 3SM BR OVC003 FM210300 01012G32KT 6SM BR OVC010 WS020/04040KT FM210800 01014G32KT P6SM OVC035 FM211400 02018G35KT P6SM OVC035 FM212200 03015G29KT P6SM SCT060

Arrival

Arriving at
Charlottesville (CHO)
Arrival gate
Ramp
Scheduled Arrival
GMT 1745
Local 1345
METAR KCHO 201753Z VRB05KT 10SM FEW100 31/16 A2997 RMK AO2 SLP142 T03060156 10311 20189 58014
TAF KCHO 201720Z 2018/2118 35005KT P6SM SCT050 SCT200 FM202300 VRB03KT P6SM SCT050 SCT200 FM210600 VRB03KT 3SM BR SCT200 FM211300 VRB03KT P6SM SCT200 FM211500 05004KT P6SM SCT050 SCT200

Route Map

Planning Resources

TERPZ3 LDN GVE
KBWI BAL OTT BOOYA GVE KCHO
TERPZ CSN GVE
PUT RBV OTT BRV GVE KCHO
Route:
OFP Layout:
Units:
Detailed Navlog:
ETOPS Planning:
Plan Stepclimbs:
Runway Analysis:
Include NOTAMS:
FIR NOTAMS:
Flight Maps:

Popularity

Hub Current Bids PiReps this month Total PiReps
KMCI 0 0 3
KLAX 0 0 1
KBOS 0 0 1